createdAt,value
2018-06-13T00:00:17.400Z,83.95
2018-06-13T00:02:46.701Z,83.89
2018-06-13T00:05:15.987Z,84.11
2018-06-13T00:07:45.213Z,83.85
2018-06-13T00:10:14.337Z,84.15
2018-06-13T00:12:43.483Z,84.42
2018-06-13T00:15:12.578Z,84.33
2018-06-13T00:17:41.764Z,84.19
2018-06-13T00:20:10.933Z,84.03
2018-06-13T00:22:40.028Z,84.31
2018-06-13T00:25:09.266Z,83.31
2018-06-13T00:27:38.464Z,83.64
2018-06-13T00:30:07.579Z,83.26
2018-06-13T00:32:36.797Z,82.98
2018-06-13T00:35:05.916Z,83.12
2018-06-13T00:37:35.049Z,82.42
2018-06-13T00:40:04.188Z,82.37
2018-06-13T00:42:33.300Z,82.88
2018-06-13T00:45:02.436Z,83.17
2018-06-13T00:47:38.313Z,83.57
2018-06-13T00:50:07.466Z,83.75
2018-06-13T00:52:36.588Z,83.94
2018-06-13T00:55:06.045Z,83.39
2018-06-13T00:57:35.171Z,84.12
2018-06-13T01:00:04.842Z,84.31
2018-06-13T01:02:33.986Z,84.47
2018-06-13T01:05:03.224Z,84.47
2018-06-13T01:07:32.409Z,83.75
2018-06-13T01:10:01.591Z,83.34
2018-06-13T01:12:30.707Z,83.10
2018-06-13T01:14:59.846Z,83.05
2018-06-13T01:17:29.053Z,83.43
2018-06-13T01:19:58.177Z,83.41
2018-06-13T01:22:27.408Z,83.66
2018-06-13T01:25:09.750Z,83.54
2018-06-13T01:27:39.994Z,83.50
2018-06-13T01:30:09.227Z,83.01
2018-06-13T01:32:38.428Z,83.31
2018-06-13T01:35:07.589Z,83.22
2018-06-13T01:37:36.755Z,83.67
2018-06-13T01:40:06.201Z,83.04
2018-06-13T01:42:35.399Z,83.06
2018-06-13T01:45:04.582Z,83.44
2018-06-13T01:47:33.746Z,83.60
2018-06-13T01:50:02.907Z,83.23
2018-06-13T01:52:32.066Z,83.14
2018-06-13T01:55:01.163Z,83.47
2018-06-13T01:57:30.307Z,83.29
2018-06-13T01:59:59.547Z,83.10
2018-06-13T02:02:28.666Z,82.61
2018-06-13T02:04:57.894Z,83.14
2018-06-13T02:07:27.008Z,83.17
2018-06-13T02:09:56.114Z,82.34
2018-06-13T02:12:25.622Z,82.10
2018-06-13T02:14:54.853Z,81.96
2018-06-13T02:17:24.032Z,82.98
2018-06-13T02:19:53.123Z,82.76
2018-06-13T02:22:22.276Z,82.16
2018-06-13T02:24:51.426Z,82.63
2018-06-13T02:27:20.568Z,83.19
2018-06-13T02:29:49.704Z,83.24
2018-06-13T02:32:19.725Z,83.61
2018-06-13T02:34:48.881Z,83.73
2018-06-13T02:37:18.145Z,83.98
2018-06-13T02:39:47.340Z,84.46
2018-06-13T02:42:16.723Z,84.22
2018-06-13T02:44:45.939Z,83.86
2018-06-13T02:47:15.117Z,84.39
2018-06-13T02:49:44.290Z,84.15
2018-06-13T02:52:13.524Z,84.14
2018-06-13T02:54:42.693Z,84.08
2018-06-13T02:57:11.862Z,83.73
2018-06-13T02:59:41.019Z,83.93
2018-06-13T03:02:10.259Z,83.73
2018-06-13T03:04:39.444Z,83.97
2018-06-13T03:07:08.603Z,84.34
2018-06-13T03:09:37.761Z,84.32
2018-06-13T03:12:07.352Z,84.65
2018-06-13T03:14:36.516Z,84.61
2018-06-13T03:17:05.695Z,84.68
2018-06-13T03:19:34.819Z,84.79
2018-06-13T03:22:03.948Z,84.87
2018-06-13T03:24:33.113Z,84.78
2018-06-13T03:27:02.246Z,85.57
2018-06-13T03:29:31.421Z,85.59
2018-06-13T03:32:00.647Z,85.40
2018-06-13T03:34:29.843Z,85.10
2018-06-13T03:36:59.028Z,85.42
2018-06-13T03:39:28.112Z,84.33
2018-06-13T03:41:57.240Z,83.97
2018-06-13T03:44:46.160Z,83.96
2018-06-13T03:47:19.518Z,84.11
2018-06-13T03:49:48.765Z,83.00
2018-06-13T03:52:17.890Z,83.21
2018-06-13T03:54:47.147Z,83.70
2018-06-13T03:57:16.410Z,82.74
2018-06-13T03:59:45.518Z,82.42
2018-06-13T04:02:14.703Z,82.14
2018-06-13T04:04:43.845Z,82.84
2018-06-13T04:07:13.101Z,82.59
2018-06-13T04:09:42.264Z,82.98
2018-06-13T04:12:11.377Z,82.60
2018-06-13T04:14:40.559Z,81.46
2018-06-13T04:17:09.712Z,81.80
2018-06-13T04:19:38.894Z,81.46
2018-06-13T04:22:08.092Z,81.79
2018-06-13T04:24:37.482Z,81.83
2018-06-13T04:27:06.631Z,81.32
2018-06-13T04:29:35.784Z,81.26
2018-06-13T04:32:04.969Z,81.05
2018-06-13T04:34:34.151Z,80.39
2018-06-13T04:37:03.388Z,80.14
2018-06-13T04:39:32.508Z,80.45
2018-06-13T04:42:01.875Z,79.61
2018-06-13T04:44:31.015Z,80.24
2018-06-13T04:47:00.253Z,80.53
2018-06-13T04:49:29.376Z,78.83
2018-06-13T04:51:58.560Z,78.66
2018-06-13T04:54:27.667Z,78.01
2018-06-13T04:56:56.825Z,77.82
2018-06-13T04:59:25.938Z,76.61
2018-06-13T05:01:55.093Z,76.11
2018-06-13T05:04:24.378Z,78.16
2018-06-13T05:06:53.559Z,78.19
2018-06-13T05:09:22.784Z,78.79
2018-06-13T05:11:51.984Z,78.52
2018-06-13T05:14:21.172Z,77.68
2018-06-13T05:16:50.373Z,78.86
2018-06-13T05:19:19.578Z,78.46
2018-06-13T05:21:48.746Z,77.92
2018-06-13T05:24:17.945Z,78.05
2018-06-13T05:26:47.164Z,78.24
2018-06-13T05:29:16.301Z,77.88
2018-06-13T05:31:45.452Z,78.15
2018-06-13T05:34:14.692Z,78.72
2018-06-13T05:36:43.853Z,78.62
2018-06-13T05:39:12.982Z,79.05
2018-06-13T05:41:43.109Z,78.88
2018-06-13T05:44:12.509Z,79.01
2018-06-13T05:46:42.159Z,78.79
2018-06-13T05:49:11.403Z,78.16
2018-06-13T05:51:40.676Z,77.71
2018-06-13T05:54:10.859Z,77.25
2018-06-13T05:56:41.060Z,77.13
2018-06-13T05:59:11.209Z,76.32
2018-06-13T06:01:40.407Z,76.70
2018-06-13T06:04:09.560Z,76.97
2018-06-13T06:06:38.708Z,77.39
2018-06-13T06:09:09.481Z,76.48
2018-06-13T06:11:38.595Z,76.69
2018-06-13T06:14:07.794Z,75.97
2018-06-13T06:16:37.033Z,75.53
2018-06-13T06:19:06.193Z,76.24
2018-06-13T06:21:35.486Z,75.98
2018-06-13T06:24:04.680Z,76.48
2018-06-13T06:26:33.852Z,75.33
2018-06-13T06:29:03.082Z,76.15
2018-06-13T06:31:32.230Z,76.21
2018-06-13T06:34:01.354Z,75.63
2018-06-13T06:36:30.486Z,75.28
2018-06-13T06:38:59.712Z,74.81
2018-06-13T06:41:28.868Z,73.72
2018-06-13T06:43:58.141Z,73.93
2018-06-13T06:46:27.359Z,72.56
2018-06-13T06:48:56.599Z,69.94
2018-06-13T06:51:25.772Z,69.66
2018-06-13T06:53:55.190Z,69.09
2018-06-13T06:56:24.381Z,68.66
2018-06-13T06:58:53.747Z,68.58
2018-06-13T07:01:22.902Z,67.39
2018-06-13T07:03:52.175Z,67.55
2018-06-13T07:06:21.453Z,66.88
2018-06-13T07:08:50.627Z,67.45
2018-06-13T07:11:19.823Z,68.52
2018-06-13T07:13:48.992Z,68.93
2018-06-13T07:16:18.157Z,69.63
2018-06-13T07:18:47.359Z,70.31
2018-06-13T07:21:16.559Z,70.51
2018-06-13T07:23:45.815Z,70.35
2018-06-13T07:26:15.110Z,69.95
2018-06-13T07:28:44.245Z,69.82
2018-06-13T07:31:13.512Z,69.08
2018-06-13T07:33:42.786Z,70.03
2018-06-13T07:36:12.123Z,70.18
2018-06-13T07:38:41.270Z,70.75
2018-06-13T07:41:10.517Z,70.32
2018-06-13T07:43:39.674Z,70.34
2018-06-13T07:46:08.859Z,68.95
2018-06-13T07:48:38.037Z,69.96
2018-06-13T07:51:07.201Z,70.02
2018-06-13T07:53:36.413Z,70.17
2018-06-13T07:56:05.730Z,70.73
2018-06-13T07:58:34.919Z,70.43
2018-06-13T08:01:04.895Z,70.86
2018-06-13T08:03:34.079Z,70.34
2018-06-13T08:06:03.236Z,68.73
2018-06-13T08:08:32.417Z,68.79
2018-06-13T08:11:01.597Z,68.55
2018-06-13T08:16:27.372Z,68.99
2018-06-13T08:18:56.638Z,68.69
2018-06-13T08:21:25.882Z,67.95
2018-06-13T08:23:55.090Z,67.11
2018-06-13T08:26:24.218Z,66.54
2018-06-13T08:28:53.361Z,66.02
2018-06-13T08:31:22.531Z,66.73
2018-06-13T08:33:51.711Z,65.57
2018-06-13T08:36:20.893Z,65.61
2018-06-13T08:38:50.127Z,65.42
2018-06-13T08:41:19.253Z,65.85
2018-06-13T08:43:48.420Z,65.60
2018-06-13T08:46:17.525Z,65.30
2018-06-13T08:48:46.618Z,64.94
2018-06-13T08:51:15.777Z,65.40
2018-06-13T08:53:44.971Z,65.27
2018-06-13T08:56:14.197Z,64.89
2018-06-13T08:58:43.364Z,64.07
2018-06-13T09:01:13.518Z,64.44
2018-06-13T09:03:42.699Z,63.48
2018-06-13T09:06:12.000Z,64.15
2018-06-13T09:08:41.200Z,65.42
2018-06-13T09:11:10.504Z,66.09
2018-06-13T09:13:39.758Z,66.63
2018-06-13T09:19:25.088Z,68.49
2018-06-13T09:21:54.220Z,69.07
2018-06-13T09:24:24.948Z,69.21
2018-06-13T09:26:54.144Z,68.76
2018-06-13T09:29:23.246Z,67.99
2018-06-13T09:31:52.402Z,68.56
2018-06-13T09:34:21.562Z,68.75
2018-06-13T09:36:50.752Z,67.84
2018-06-13T09:39:19.901Z,66.82
2018-06-13T09:41:54.210Z,66.29
2018-06-13T09:44:23.420Z,64.57
2018-06-13T09:46:52.569Z,62.86
2018-06-13T09:49:21.742Z,62.68
2018-06-13T09:51:50.921Z,61.51
2018-06-13T09:54:20.070Z,61.28
2018-06-13T09:56:50.451Z,61.15
2018-06-13T09:59:20.451Z,61.62
2018-06-13T10:01:56.306Z,60.66
2018-06-13T10:04:25.771Z,61.42
2018-06-13T10:06:55.234Z,60.21
2018-06-13T10:09:24.462Z,60.61
2018-06-13T10:11:53.808Z,60.20
2018-06-13T10:14:23.131Z,60.83
2018-06-13T10:16:52.284Z,60.80
2018-06-13T10:19:21.558Z,59.87
2018-06-13T10:21:51.023Z,60.58
2018-06-13T10:24:20.311Z,61.58
2018-06-13T10:26:49.839Z,61.80
2018-06-13T10:29:19.162Z,62.32
2018-06-13T10:31:48.527Z,61.59
2018-06-13T10:34:18.352Z,61.03
2018-06-13T10:36:47.455Z,61.73
2018-06-13T10:39:17.964Z,61.74
2018-06-13T10:41:49.470Z,63.36
2018-06-13T10:44:24.683Z,63.23
2018-06-13T10:46:57.055Z,62.66
2018-06-13T10:49:34.929Z,63.18
2018-06-13T10:52:06.801Z,63.35
2018-06-13T10:54:39.565Z,62.73
2018-06-13T10:57:12.684Z,63.38
2018-06-13T10:59:43.774Z,63.49
2018-06-13T11:02:13.818Z,63.95
2018-06-13T11:04:46.629Z,63.07
2018-06-13T11:07:18.769Z,62.54
2018-06-13T11:09:50.026Z,62.60
2018-06-13T11:12:19.748Z,62.13
2018-06-13T11:14:49.757Z,61.29
2018-06-13T11:17:19.802Z,60.91
2018-06-13T11:19:49.492Z,59.16
2018-06-13T11:22:18.938Z,59.05
2018-06-13T11:24:48.479Z,58.35
2018-06-13T11:27:17.616Z,58.88
2018-06-13T11:29:46.869Z,58.37
2018-06-13T11:32:16.165Z,59.16
2018-06-13T11:34:45.523Z,59.86
2018-06-13T11:37:15.017Z,58.14
2018-06-13T11:39:44.458Z,58.16
2018-06-13T11:42:13.714Z,57.80
2018-06-13T11:44:43.015Z,57.54
2018-06-13T11:47:12.215Z,57.52
2018-06-13T11:49:41.480Z,58.01
2018-06-13T11:52:10.739Z,58.04
2018-06-13T11:54:39.889Z,57.28
2018-06-13T11:57:09.461Z,57.66
2018-06-13T11:59:38.662Z,57.36
2018-06-13T12:02:07.882Z,56.14
2018-06-13T12:04:37.032Z,55.34
2018-06-13T12:07:06.370Z,54.71
2018-06-13T12:09:36.178Z,54.24
2018-06-13T12:12:05.679Z,52.81
2018-06-13T12:14:34.979Z,52.19
2018-06-13T12:17:04.220Z,51.35
2018-06-13T12:19:33.589Z,51.87
2018-06-13T12:22:02.787Z,49.76
2018-06-13T12:24:31.933Z,49.79
2018-06-13T12:27:01.107Z,49.34
2018-06-13T12:29:30.310Z,47.89
2018-06-13T12:31:59.747Z,48.65
2018-06-13T12:34:29.047Z,50.19
2018-06-13T12:36:58.273Z,51.25
2018-06-13T12:39:28.738Z,51.05
2018-06-13T12:41:58.066Z,52.27
2018-06-13T12:44:27.698Z,52.11
2018-06-13T12:46:56.865Z,51.71
2018-06-13T12:49:26.020Z,51.50
2018-06-13T12:51:55.258Z,50.79
2018-06-13T12:54:24.508Z,50.68
2018-06-13T12:56:53.981Z,51.18
2018-06-13T12:59:23.088Z,51.79
2018-06-13T13:01:52.297Z,49.90
2018-06-13T13:04:21.453Z,49.63
2018-06-13T13:06:50.697Z,48.87
2018-06-13T13:09:19.877Z,49.81
2018-06-13T13:11:49.112Z,49.13
2018-06-13T13:14:18.304Z,46.80
2018-06-13T13:16:47.501Z,46.38
2018-06-13T13:19:16.695Z,45.76
2018-06-13T13:21:45.810Z,44.91
2018-06-13T13:24:15.060Z,44.75
2018-06-13T13:26:44.209Z,45.17
2018-06-13T13:29:13.421Z,45.23
2018-06-13T13:31:42.762Z,43.97
2018-06-13T13:34:11.968Z,44.98
2018-06-13T13:36:41.111Z,45.05
2018-06-13T13:39:11.227Z,45.67
2018-06-13T13:41:41.108Z,45.37
2018-06-13T13:44:10.357Z,46.20
2018-06-13T13:46:39.483Z,46.69
2018-06-13T13:49:08.631Z,47.77
2018-06-13T13:51:37.820Z,48.56
2018-06-13T13:54:07.031Z,49.26
2018-06-13T13:56:36.137Z,49.51
2018-06-13T13:59:05.353Z,49.65
2018-06-13T14:01:34.661Z,50.36
2018-06-13T14:04:03.790Z,50.38
2018-06-13T14:06:33.000Z,49.22
2018-06-13T14:09:02.400Z,49.81
2018-06-13T14:11:31.585Z,49.09
2018-06-13T14:14:00.795Z,48.18
2018-06-13T14:16:30.710Z,47.04
2018-06-13T14:18:59.887Z,45.65
2018-06-13T14:21:29.454Z,45.29
2018-06-13T14:23:58.812Z,43.71
2018-06-13T14:26:28.008Z,43.45
2018-06-13T14:28:57.199Z,42.79
2018-06-13T14:31:26.385Z,42.72
2018-06-13T14:33:55.561Z,42.69
2018-06-13T14:36:24.691Z,43.14
2018-06-13T14:38:54.154Z,42.66
2018-06-13T14:41:23.304Z,41.25
2018-06-13T14:43:52.437Z,40.77
2018-06-13T14:46:21.731Z,38.88
2018-06-13T14:48:50.953Z,38.40
2018-06-13T14:51:20.211Z,40.10
2018-06-13T14:53:49.380Z,41.70
2018-06-13T14:56:23.620Z,43.11
2018-06-13T14:58:52.766Z,43.84
2018-06-13T15:01:22.057Z,44.42
2018-06-13T15:03:51.234Z,45.38
2018-06-13T15:06:20.585Z,45.03
2018-06-13T15:08:49.857Z,45.37
2018-06-13T15:11:19.039Z,45.39
2018-06-13T15:13:48.250Z,46.32
2018-06-13T15:16:17.380Z,46.56
2018-06-13T15:18:46.867Z,44.50
2018-06-13T15:21:16.204Z,44.48
2018-06-13T15:23:45.720Z,44.88
2018-06-13T15:26:14.939Z,44.43
2018-06-13T15:28:44.139Z,44.04
2018-06-13T15:31:13.453Z,44.73
2018-06-13T15:33:42.658Z,44.51
2018-06-13T15:36:11.818Z,44.35
2018-06-13T15:38:40.987Z,43.08
2018-06-13T15:41:10.117Z,43.56
2018-06-13T15:43:39.295Z,43.47
2018-06-13T15:46:08.471Z,43.21
2018-06-13T15:48:37.705Z,43.46
2018-06-13T15:51:06.855Z,43.69
2018-06-13T15:53:35.992Z,45.03
2018-06-13T15:56:05.374Z,44.07
2018-06-13T15:58:34.767Z,43.66
2018-06-13T16:01:03.990Z,42.07
2018-06-13T16:03:33.155Z,42.60
2018-06-13T16:06:02.290Z,42.30
2018-06-13T16:08:31.450Z,42.51
2018-06-13T16:11:00.930Z,42.93
2018-06-13T16:13:30.135Z,43.11
2018-06-13T16:16:01.940Z,43.97
2018-06-13T16:18:31.255Z,44.82
2018-06-13T16:21:00.483Z,44.65
2018-06-13T16:23:29.778Z,44.80
2018-06-13T16:25:59.173Z,44.51
2018-06-13T16:28:28.846Z,44.46
2018-06-13T16:30:58.112Z,43.50
2018-06-13T16:33:28.087Z,44.36
2018-06-13T16:35:57.894Z,44.66
2018-06-13T16:38:27.073Z,44.80
2018-06-13T16:40:56.519Z,45.28
2018-06-13T16:43:25.874Z,44.72
2018-06-13T16:45:55.386Z,44.89
2018-06-13T16:48:24.895Z,45.45
2018-06-13T16:51:05.439Z,45.22
2018-06-13T16:53:48.235Z,45.21
2018-06-13T16:56:17.670Z,45.28
2018-06-13T16:58:47.402Z,46.37
2018-06-13T17:01:16.781Z,46.31
2018-06-13T17:03:46.298Z,47.56
2018-06-13T17:06:15.831Z,47.65
2018-06-13T17:08:45.377Z,47.53
2018-06-13T17:11:15.123Z,46.86
2018-06-13T17:13:45.408Z,47.74
2018-06-13T17:16:14.875Z,47.97
2018-06-13T17:18:44.108Z,47.22
2018-06-13T17:21:13.438Z,48.16
2018-06-13T17:23:42.978Z,47.96
2018-06-13T17:26:12.282Z,48.67
2018-06-13T17:28:42.586Z,49.57
2018-06-13T17:31:11.874Z,49.18
2018-06-13T17:33:41.001Z,49.31
2018-06-13T17:36:10.237Z,50.17
2018-06-13T17:38:40.210Z,49.30
2018-06-13T17:41:09.444Z,49.76
2018-06-13T17:43:38.622Z,49.74
2018-06-13T17:46:07.789Z,50.02
2018-06-13T17:48:36.940Z,50.08
2018-06-13T17:51:06.236Z,49.72
2018-06-13T17:53:35.408Z,50.95
2018-06-13T17:56:04.702Z,50.82
2018-06-13T17:58:33.888Z,51.10
2018-06-13T18:01:03.095Z,51.27
2018-06-13T18:03:32.243Z,51.94
2018-06-13T18:06:01.793Z,51.58
2018-06-13T18:08:31.118Z,51.41
2018-06-13T18:11:00.321Z,51.47
2018-06-13T18:13:29.756Z,51.48
2018-06-13T18:15:58.915Z,51.49
2018-06-13T18:18:28.113Z,50.93
2018-06-13T18:20:57.490Z,51.49
2018-06-13T18:23:26.623Z,51.31
2018-06-13T18:25:55.911Z,51.66
2018-06-13T18:28:25.035Z,51.95
2018-06-13T18:30:54.242Z,52.04
2018-06-13T18:33:23.432Z,52.03
2018-06-13T18:35:52.601Z,53.11
2018-06-13T18:38:21.871Z,53.19
2018-06-13T18:40:51.065Z,53.71
2018-06-13T18:43:20.196Z,54.23
2018-06-13T18:45:49.394Z,54.19
2018-06-13T18:48:25.045Z,54.16
2018-06-13T18:50:54.262Z,54.28
2018-06-13T18:53:23.396Z,54.60
2018-06-13T18:55:52.603Z,54.86
2018-06-13T18:58:21.713Z,55.50
2018-06-13T19:00:51.026Z,54.79
2018-06-13T19:03:20.158Z,55.77
2018-06-13T19:05:49.560Z,55.47
2018-06-13T19:08:19.089Z,54.71
2018-06-13T19:10:48.460Z,55.25
2018-06-13T19:13:17.657Z,54.44
2018-06-13T19:15:47.142Z,54.71
2018-06-13T19:18:16.608Z,54.32
2018-06-13T19:20:45.849Z,54.34
2018-06-13T19:23:15.109Z,55.20
2018-06-13T19:25:44.425Z,55.07
2018-06-13T19:28:13.859Z,55.05
2018-06-13T19:30:43.221Z,55.64
2018-06-13T19:33:12.621Z,55.51
2018-06-13T19:35:41.917Z,55.76
2018-06-13T19:38:11.306Z,55.98
2018-06-13T19:40:40.619Z,55.58
2018-06-13T19:43:15.205Z,56.84
2018-06-13T19:45:44.574Z,56.76
2018-06-13T19:48:19.107Z,57.49
2018-06-13T19:50:48.474Z,57.16
2018-06-13T19:53:22.928Z,56.69
2018-06-13T19:55:57.458Z,57.02
2018-06-13T19:58:26.700Z,57.34
2018-06-13T20:00:55.929Z,57.91
2018-06-13T20:03:30.433Z,57.87
2018-06-13T20:05:59.634Z,57.44
2018-06-13T20:08:28.893Z,57.59
2018-06-13T20:10:58.431Z,57.86
2018-06-13T20:13:32.884Z,58.05
2018-06-13T20:16:07.471Z,58.14
2018-06-13T20:18:41.882Z,58.57
2018-06-13T20:21:11.960Z,58.30
2018-06-13T20:23:42.240Z,58.51
2018-06-13T20:26:16.756Z,58.62
2018-06-13T20:28:50.993Z,58.07
2018-06-13T20:31:25.197Z,58.72
2018-06-13T20:33:54.369Z,58.69
2018-06-13T20:36:24.755Z,58.47
2018-06-13T20:38:53.932Z,59.24
2018-06-13T20:41:23.124Z,59.13
2018-06-13T20:43:52.385Z,59.42
2018-06-13T20:46:21.558Z,60.11
2018-06-13T20:48:50.695Z,60.29
2018-06-13T20:51:19.949Z,60.77
2018-06-13T20:53:49.141Z,60.06
2018-06-13T20:56:18.290Z,60.77
2018-06-13T20:58:47.428Z,61.10
2018-06-13T21:01:16.671Z,60.90
2018-06-13T21:03:45.933Z,61.50
2018-06-13T21:06:15.187Z,61.27
2018-06-13T21:08:44.557Z,62.14
2018-06-13T21:11:13.710Z,61.98
2018-06-13T21:13:42.959Z,62.12
2018-06-13T21:16:12.126Z,62.37
2018-06-13T21:18:41.315Z,62.44
2018-06-13T21:21:10.471Z,62.24
2018-06-13T21:23:39.647Z,63.08
2018-06-13T21:26:08.795Z,63.28
2018-06-13T21:28:37.959Z,63.03
2018-06-13T21:31:07.112Z,63.03
2018-06-13T21:33:36.796Z,62.63
2018-06-13T21:36:06.040Z,63.11
2018-06-13T21:38:35.177Z,63.36
2018-06-13T21:41:04.589Z,63.51
2018-06-13T21:43:33.730Z,63.41
2018-06-13T21:46:02.889Z,63.44
2018-06-13T21:48:32.185Z,63.73
2018-06-13T21:51:01.404Z,63.85
2018-06-13T21:53:30.633Z,64.05
2018-06-13T21:55:59.801Z,64.01
2018-06-13T21:58:28.925Z,64.16
2018-06-13T22:00:58.134Z,64.57
2018-06-13T22:03:27.370Z,65.27
2018-06-13T22:05:56.584Z,65.76
2018-06-13T22:08:25.741Z,66.56
2018-06-13T22:10:54.895Z,66.40
2018-06-13T22:13:24.145Z,66.52
2018-06-13T22:15:53.212Z,66.80
2018-06-13T22:18:22.354Z,67.07
2018-06-13T22:20:51.584Z,67.29
2018-06-13T22:23:20.686Z,67.56
2018-06-13T22:25:49.837Z,67.64
2018-06-13T22:28:18.940Z,68.02
2018-06-13T22:30:48.194Z,68.53
2018-06-13T22:33:17.312Z,69.04
2018-06-13T22:35:46.483Z,69.10
2018-06-13T22:38:16.374Z,69.20
2018-06-13T22:40:45.509Z,69.32
2018-06-13T22:43:14.669Z,69.84
2018-06-13T22:45:43.791Z,70.67
2018-06-13T22:48:12.949Z,71.10
2018-06-13T22:50:42.600Z,71.46
2018-06-13T22:53:11.811Z,71.45
2018-06-13T22:55:41.016Z,72.12
2018-06-13T22:58:10.115Z,72.37
2018-06-13T23:01:11.654Z,72.58
2018-06-13T23:03:41.053Z,73.34
2018-06-13T23:06:11.234Z,73.45
2018-06-13T23:08:40.496Z,73.71
2018-06-13T23:11:09.668Z,73.98
2018-06-13T23:13:38.820Z,74.50
2018-06-13T23:16:07.994Z,75.22
2018-06-13T23:18:37.112Z,75.53
2018-06-13T23:21:06.335Z,75.75
2018-06-13T23:23:35.711Z,75.98
2018-06-13T23:26:04.863Z,76.61
2018-06-13T23:28:33.948Z,77.27
2018-06-13T23:31:03.141Z,77.40
2018-06-13T23:33:32.358Z,77.59
2018-06-13T23:36:01.679Z,77.94
2018-06-13T23:38:30.865Z,78.94
2018-06-13T23:40:59.963Z,79.68
2018-06-13T23:43:29.254Z,80.34
2018-06-13T23:45:58.355Z,80.49
2018-06-13T23:48:27.511Z,81.02
2018-06-13T23:50:56.597Z,81.73
2018-06-13T23:53:25.817Z,81.69
2018-06-13T23:55:54.972Z,82.56
2018-06-13T23:58:24.183Z,83.10
